createdAt,value
2019-02-07T00:00:01.356Z,1000.39
2019-02-07T00:05:01.683Z,1000.28
2019-02-07T00:10:01.948Z,1000.28
2019-02-07T00:20:01.487Z,1000.16
2019-02-07T00:25:01.743Z,1000.12
2019-02-07T00:30:02.584Z,999.9
2019-02-07T00:35:02.071Z,999.69
2019-02-07T00:40:01.349Z,999.71
2019-02-07T00:45:01.612Z,999.49
2019-02-07T00:50:01.953Z,999.44
2019-02-07T00:55:02.199Z,999.29
2019-02-07T01:00:01.554Z,999.25
2019-02-07T01:05:01.885Z,999.18
2019-02-07T01:10:02.172Z,999.16
2019-02-07T01:15:02.698Z,998.97
2019-02-07T01:20:01.996Z,998.8
2019-02-07T01:25:01.942Z,998.7
2019-02-07T01:30:01.578Z,998.56
2019-02-07T01:35:01.910Z,998.43
2019-02-07T01:40:03.039Z,998.48
2019-02-07T01:45:13.478Z,998.41
2019-02-07T01:50:01.795Z,998.37
2019-02-07T01:55:02.036Z,998.35
2019-02-07T02:00:01.525Z,998.23
2019-02-07T02:05:01.884Z,998.17
2019-02-07T02:10:02.195Z,998.17
2019-02-07T02:15:01.512Z,998.14
2019-02-07T02:20:01.942Z,998.13
2019-02-07T02:25:02.014Z,998.03
2019-02-07T02:30:01.399Z,997.93
2019-02-07T02:35:01.737Z,997.79
2019-02-07T02:40:02.035Z,997.78
2019-02-07T02:45:01.326Z,997.82
2019-02-07T02:50:01.606Z,997.69
2019-02-07T02:55:02.023Z,997.64
2019-02-07T03:00:01.318Z,997.58
2019-02-07T03:05:02.387Z,997.52
2019-02-07T03:10:01.954Z,997.56
2019-02-07T03:15:02.221Z,997.37
2019-02-07T03:20:01.544Z,997.37
2019-02-07T03:25:02.080Z,996.95
2019-02-07T03:30:01.316Z,996.74
2019-02-07T03:35:01.646Z,996.81
2019-02-07T03:40:01.550Z,996.66
2019-02-07T03:45:01.851Z,996.56
2019-02-07T03:50:02.146Z,996.41
2019-02-07T03:55:01.446Z,996.34
2019-02-07T04:00:01.730Z,996.31
2019-02-07T04:05:02.017Z,996.21
2019-02-07T04:10:01.301Z,996.14
2019-02-07T04:15:02.323Z,996.07
2019-02-07T04:20:02.154Z,996.02
2019-02-07T04:25:01.474Z,995.84
2019-02-07T04:30:01.802Z,995.85
2019-02-07T04:35:02.086Z,995.83
2019-02-07T04:40:01.411Z,995.7
2019-02-07T04:45:01.729Z,995.75
2019-02-07T04:50:02.018Z,995.54
2019-02-07T04:55:01.298Z,995.5
2019-02-07T05:00:01.619Z,995.46
2019-02-07T05:05:01.935Z,995.33
2019-02-07T05:10:02.212Z,995.33
2019-02-07T05:15:01.509Z,995.3
2019-02-07T05:20:01.844Z,995.24
2019-02-07T05:25:02.848Z,995.19
2019-02-07T05:30:01.560Z,995.17
2019-02-07T05:35:02.020Z,995.1
2019-02-07T05:40:02.818Z,995.09
2019-02-07T05:45:01.375Z,994.91
2019-02-07T05:50:01.656Z,994.81
2019-02-07T05:55:01.995Z,994.7
2019-02-07T06:00:01.302Z,994.63
2019-02-07T06:05:01.659Z,994.59
2019-02-07T06:10:01.969Z,994.53
2019-02-07T06:15:02.265Z,994.37
2019-02-07T06:20:01.569Z,994.22
2019-02-07T06:25:01.823Z,994.22
2019-02-07T06:30:02.095Z,994.32
2019-02-07T06:35:01.446Z,994.27
2019-02-07T06:40:01.745Z,994.22
2019-02-07T06:45:02.018Z,994.15
2019-02-07T06:50:02.162Z,994.1
2019-02-07T06:55:01.759Z,994.13
2019-02-07T07:00:02.053Z,994.2
2019-02-07T07:05:01.854Z,994.18
2019-02-07T07:10:01.334Z,994.09
2019-02-07T07:15:01.860Z,994.11
2019-02-07T07:20:02.136Z,993.97
2019-02-07T07:25:01.436Z,993.97
2019-02-07T07:30:01.757Z,993.99
2019-02-07T07:35:02.057Z,994.05
2019-02-07T07:40:01.348Z,994.05
2019-02-07T07:45:02.482Z,993.97
2019-02-07T07:50:02.131Z,994.02
2019-02-07T07:55:01.418Z,993.97
2019-02-07T08:00:01.708Z,994.11
2019-02-07T08:05:02.003Z,993.99
2019-02-07T08:10:01.278Z,994.17
2019-02-07T08:15:01.567Z,994.09
2019-02-07T08:20:01.910Z,994.09
2019-02-07T08:25:02.198Z,994.24
2019-02-07T08:30:01.588Z,994.28
2019-02-07T08:35:01.972Z,994.29
2019-02-07T08:40:02.297Z,994.07
2019-02-07T08:45:01.679Z,994.23
2019-02-07T08:50:02.023Z,994.25
2019-02-07T08:55:02.024Z,994.39
2019-02-07T09:00:01.671Z,994.32
2019-02-07T09:05:02.110Z,994.31
2019-02-07T09:10:01.395Z,994.39
2019-02-07T09:15:01.742Z,994.46
2019-02-07T09:20:02.089Z,994.51
2019-02-07T09:25:01.386Z,994.62
2019-02-07T09:30:01.697Z,994.62
2019-02-07T09:35:01.997Z,994.82
2019-02-07T09:40:01.337Z,994.92
2019-02-07T09:45:01.643Z,994.98
2019-02-07T09:50:01.939Z,995
2019-02-07T09:55:02.223Z,995.09
2019-02-07T10:00:01.506Z,995.08
2019-02-07T10:05:02.425Z,995.18
2019-02-07T10:10:02.006Z,995.13
2019-02-07T10:15:01.333Z,995.21
2019-02-07T10:20:01.641Z,995.09
2019-02-07T10:25:01.929Z,995.17
2019-02-07T10:30:02.207Z,995.19
2019-02-07T10:35:01.552Z,995.23
2019-02-07T10:40:01.859Z,995.11
2019-02-07T10:45:02.137Z,995.11
2019-02-07T10:50:01.527Z,994.99
2019-02-07T10:55:01.856Z,995.13
2019-02-07T11:00:02.160Z,995.17
2019-02-07T11:05:01.477Z,995.04
2019-02-07T11:10:01.844Z,994.89
2019-02-07T11:15:02.738Z,994.84
2019-02-07T11:20:02.205Z,994.92
2019-02-07T11:25:01.446Z,994.94
2019-02-07T11:30:01.739Z,994.92
2019-02-07T11:35:02.045Z,994.95
2019-02-07T11:40:01.330Z,994.92
2019-02-07T11:45:01.635Z,994.86
2019-02-07T11:50:01.971Z,994.89
2019-02-07T11:55:02.211Z,994.94
2019-02-07T12:00:01.502Z,994.96
2019-02-07T12:05:01.802Z,994.98
2019-02-07T12:10:02.817Z,994.88
2019-02-07T12:15:01.404Z,994.95
2019-02-07T12:20:01.711Z,994.84
2019-02-07T12:25:01.974Z,994.83
2019-02-07T12:30:02.238Z,994.83
2019-02-07T12:35:01.564Z,994.88
2019-02-07T12:40:01.892Z,994.86
2019-02-07T12:45:02.194Z,994.78
2019-02-07T12:50:01.542Z,994.91
2019-02-07T12:55:01.848Z,994.78
2019-02-07T13:00:02.098Z,994.69
2019-02-07T13:05:01.451Z,994.64
2019-02-07T13:10:01.771Z,994.63
2019-02-07T13:15:02.032Z,994.53
2019-02-07T13:20:01.783Z,994.63
2019-02-07T13:25:02.351Z,994.54
2019-02-07T13:30:01.678Z,994.63
2019-02-07T13:35:02.087Z,994.58
2019-02-07T13:40:01.422Z,994.6
2019-02-07T13:45:01.752Z,994.52
2019-02-07T13:50:02.076Z,994.55
2019-02-07T13:55:01.405Z,994.64
2019-02-07T14:00:01.701Z,994.67
2019-02-07T14:05:02.031Z,994.63
2019-02-07T14:10:01.421Z,994.66
2019-02-07T14:15:02.449Z,994.74
2019-02-07T14:20:04.276Z,994.79
2019-02-07T14:25:01.575Z,994.83
2019-02-07T14:30:01.852Z,994.89
2019-02-07T14:35:02.148Z,995.01
2019-02-07T14:40:01.473Z,995.01
2019-02-07T14:45:01.760Z,995.13
2019-02-07T14:50:02.034Z,995.15
2019-02-07T14:55:01.319Z,995.16
2019-02-07T15:00:01.638Z,995.25
2019-02-07T15:05:01.903Z,995.28
2019-02-07T15:10:02.177Z,995.27
2019-02-07T15:15:01.489Z,995.32
2019-02-07T15:20:01.825Z,995.36
2019-02-07T15:25:02.090Z,995.35
2019-02-07T15:30:01.394Z,995.5
2019-02-07T15:35:01.721Z,995.51
2019-02-07T15:40:02.455Z,995.56
2019-02-07T15:45:02.045Z,995.54
2019-02-07T15:50:01.555Z,995.66
2019-02-07T15:55:02.396Z,995.64
2019-02-07T16:00:01.943Z,995.6
2019-02-07T16:05:02.192Z,995.57
2019-02-07T16:10:01.483Z,995.65
2019-02-07T16:15:01.840Z,995.64
2019-02-07T16:20:02.115Z,995.65
2019-02-07T16:25:01.417Z,995.71
2019-02-07T16:30:01.708Z,995.61
2019-02-07T16:35:02.046Z,995.66
2019-02-07T16:40:01.337Z,995.57
2019-02-07T16:45:01.615Z,995.59
2019-02-07T16:50:01.903Z,995.67
2019-02-07T16:55:02.183Z,995.72
2019-02-07T17:00:01.474Z,995.77
2019-02-07T17:05:02.229Z,995.86
2019-02-07T17:10:02.286Z,995.91
2019-02-07T17:15:01.620Z,995.99
2019-02-07T17:20:02.398Z,995.99
2019-02-07T17:25:01.823Z,996.04
2019-02-07T17:30:02.113Z,996.08
2019-02-07T17:35:01.430Z,996.09
2019-02-07T17:40:01.713Z,996.19
2019-02-07T17:45:01.979Z,996.24
2019-02-07T17:50:01.347Z,996.26
2019-02-07T17:55:01.643Z,996.37
2019-02-07T18:00:01.927Z,996.43
2019-02-07T18:05:02.199Z,996.47
2019-02-07T18:10:01.512Z,996.56
2019-02-07T18:15:01.830Z,996.65
2019-02-07T18:20:02.125Z,996.63
2019-02-07T18:25:01.453Z,996.74
2019-02-07T18:30:01.751Z,996.78
2019-02-07T18:35:02.071Z,996.83
2019-02-07T18:40:01.384Z,996.77
2019-02-07T18:45:02.022Z,996.84
2019-02-07T18:50:01.309Z,996.9
2019-02-07T18:55:01.702Z,996.94
2019-02-07T19:00:02.030Z,996.95
2019-02-07T19:05:01.389Z,997.06
2019-02-07T19:10:01.724Z,997.13
2019-02-07T19:15:02.054Z,997.19
2019-02-07T19:20:01.382Z,997.24
2019-02-07T19:25:01.716Z,997.21
2019-02-07T19:30:02.515Z,997.35
2019-02-07T19:35:02.140Z,997.47
2019-02-07T19:40:01.448Z,997.58
2019-02-07T19:45:02.250Z,997.61
2019-02-07T19:50:01.787Z,997.66
2019-02-07T19:55:02.061Z,997.68
2019-02-07T20:00:01.998Z,997.9
2019-02-07T20:05:01.542Z,997.94
2019-02-07T20:10:01.846Z,998.01
2019-02-07T20:15:02.714Z,997.96
2019-02-07T20:20:01.378Z,997.94
2019-02-07T20:25:01.738Z,998.04
2019-02-07T20:30:02.149Z,998.08
2019-02-07T20:35:01.491Z,998.11
2019-02-07T20:40:01.830Z,998.09
2019-02-07T20:45:02.136Z,998.17
2019-02-07T20:50:01.452Z,998.16
2019-02-07T20:55:01.760Z,998.13
2019-02-07T21:00:02.078Z,998.13
2019-02-07T21:05:01.430Z,998.19
2019-02-07T21:10:01.715Z,998.28
2019-02-07T21:15:02.197Z,998.23
2019-02-07T21:20:01.547Z,998.25
2019-02-07T21:25:01.858Z,998.3
2019-02-07T21:30:02.136Z,998.37
2019-02-07T21:35:01.489Z,998.36
2019-02-07T21:40:01.835Z,998.43
2019-02-07T21:45:02.107Z,998.56
2019-02-07T21:50:01.896Z,998.61
2019-02-07T21:55:01.512Z,998.64
2019-02-07T22:00:01.817Z,998.65
2019-02-07T22:05:02.470Z,998.7
2019-02-07T22:10:01.754Z,998.71
2019-02-07T22:15:02.018Z,998.69
2019-02-07T22:20:01.326Z,998.71
2019-02-07T22:25:01.630Z,998.78
2019-02-07T22:30:01.906Z,998.78
2019-02-07T22:35:02.189Z,998.81
2019-02-07T22:40:01.493Z,998.83
2019-02-07T22:45:01.816Z,998.88
2019-02-07T22:50:02.074Z,998.88
2019-02-07T22:55:01.428Z,998.86
2019-02-07T23:00:01.674Z,998.87
2019-02-07T23:05:01.956Z,998.91
2019-02-07T23:10:02.215Z,998.92
2019-02-07T23:15:01.515Z,998.92
2019-02-07T23:20:01.819Z,998.9
2019-02-07T23:25:02.070Z,998.91
2019-02-07T23:30:01.382Z,998.89
2019-02-07T23:35:01.724Z,998.84
2019-02-07T23:40:02.004Z,998.9
2019-02-07T23:45:01.291Z,998.87
2019-02-07T23:50:01.623Z,998.96
2019-02-07T23:55:01.965Z,999
